createdAt,value
2019-05-26T00:03:17.682Z,100646.09
2019-05-26T00:06:39.748Z,100644.79
2019-05-26T00:10:02.164Z,100646.33
2019-05-26T00:13:24.676Z,100649.69
2019-05-26T00:16:46.716Z,100648.34
2019-05-26T00:20:09.960Z,100639.24
2019-05-26T00:23:32.487Z,100647.69
2019-05-26T00:26:55.124Z,100649.61
2019-05-26T00:30:18.469Z,100646.33
2019-05-26T00:33:40.507Z,100645.95
2019-05-26T00:37:02.530Z,100653.31
2019-05-26T00:40:26.196Z,100651.43
2019-05-26T00:43:48.215Z,100647.34
2019-05-26T00:47:10.272Z,100652.35
2019-05-26T00:50:33.154Z,100656.45
2019-05-26T00:53:55.188Z,100651.78
2019-05-26T00:57:17.479Z,100657.20
2019-05-26T01:00:56.887Z,100652.70
2019-05-26T01:04:20.047Z,100651.70
2019-05-26T01:07:42.542Z,100651.70
2019-05-26T01:11:04.559Z,100642.10
2019-05-26T01:14:26.617Z,100643.91
2019-05-26T01:17:48.750Z,100640.20
2019-05-26T01:21:11.117Z,100631.22
2019-05-26T01:24:33.147Z,100631.68
2019-05-26T01:27:55.282Z,100632.56
2019-05-26T01:31:17.404Z,100631.57
2019-05-26T01:34:39.475Z,100622.39
2019-05-26T01:38:01.712Z,100633.66
2019-05-26T01:41:23.772Z,100625.83
2019-05-26T01:44:45.840Z,100622.86
2019-05-26T01:48:07.934Z,100614.59
2019-05-26T01:51:31.635Z,100618.00
2019-05-26T01:54:53.709Z,100621.85
2019-05-26T01:58:16.528Z,100622.36
2019-05-26T02:01:38.596Z,100622.66
2019-05-26T02:05:00.611Z,100625.94
2019-05-26T02:08:36.580Z,100617.57
2019-05-26T02:11:46.622Z,100613.41
2019-05-26T02:15:09.095Z,100620.11
2019-05-26T02:18:31.121Z,100629.91
2019-05-26T02:21:53.246Z,100630.34
2019-05-26T02:25:17.028Z,100631.80
2019-05-26T02:28:41.816Z,100629.52
2019-05-26T02:32:04.117Z,100619.66
2019-05-26T02:35:26.893Z,100616.94
2019-05-26T02:39:01.908Z,100615.75
2019-05-26T02:42:15.205Z,100614.91
2019-05-26T02:45:38.676Z,100619.72
2019-05-26T02:49:00.738Z,100623.00
2019-05-26T02:52:22.900Z,100615.48
2019-05-26T02:55:45.103Z,100616.09
2019-05-26T02:59:07.239Z,100618.02
2019-05-26T03:02:29.460Z,100612.91
2019-05-26T03:05:52.830Z,100611.92
2019-05-26T03:09:23.339Z,100613.66
2019-05-26T03:12:45.162Z,100616.68
2019-05-26T03:16:08.067Z,100613.66
2019-05-26T03:19:32.434Z,100624.31
2019-05-26T03:22:57.663Z,100613.14
2019-05-26T03:26:21.414Z,100622.77
2019-05-26T03:29:43.451Z,100615.25
2019-05-26T03:33:05.480Z,100613.72
2019-05-26T03:36:27.586Z,100612.75
2019-05-26T03:39:49.701Z,100613.98
2019-05-26T03:43:11.762Z,100621.34
2019-05-26T03:46:34.757Z,100617.38
2019-05-26T03:49:56.842Z,100616.09
2019-05-26T03:53:18.862Z,100610.81
2019-05-26T03:56:40.948Z,100607.81
2019-05-26T04:00:03.002Z,100611.75
2019-05-26T04:03:25.193Z,100613.64
2019-05-26T04:06:48.809Z,100614.68
2019-05-26T04:10:12.471Z,100606.58
2019-05-26T04:13:34.806Z,100608.48
2019-05-26T04:16:58.617Z,100609.63
2019-05-26T04:20:20.746Z,100609.36
2019-05-26T04:23:42.826Z,100614.09
2019-05-26T04:27:04.889Z,100604.46
2019-05-26T04:30:27.362Z,100603.03
2019-05-26T04:33:49.436Z,100596.95
2019-05-26T04:37:11.475Z,100599.14
2019-05-26T04:40:33.568Z,100601.95
2019-05-26T04:43:55.654Z,100604.96
2019-05-26T04:47:17.951Z,100605.69
2019-05-26T04:50:39.972Z,100597.50
2019-05-26T04:54:02.465Z,100591.70
2019-05-26T04:57:24.493Z,100597.50
2019-05-26T05:00:46.538Z,100594.70
2019-05-26T05:04:08.569Z,100602.87
2019-05-26T05:07:30.879Z,100600.95
2019-05-26T05:10:52.957Z,100595.77
2019-05-26T05:14:15.474Z,100602.06
2019-05-26T05:17:37.544Z,100602.25
2019-05-26T05:20:59.575Z,100606.59
2019-05-26T05:24:21.698Z,100607.95
2019-05-26T05:27:43.770Z,100600.79
2019-05-26T05:31:05.873Z,100594.89
2019-05-26T05:34:29.571Z,100594.78
2019-05-26T05:37:51.682Z,100598.42
2019-05-26T05:41:16.380Z,100593.88
2019-05-26T05:44:38.523Z,100605.14
2019-05-26T05:48:00.744Z,100587.23
2019-05-26T05:51:22.817Z,100581.14
2019-05-26T05:54:44.924Z,100587.97
2019-05-26T05:58:07.126Z,100591.95
2019-05-26T06:01:29.196Z,100587.94
2019-05-26T06:04:51.243Z,100579.65
2019-05-26T06:08:13.778Z,100574.47
2019-05-26T06:11:35.854Z,100584.22
2019-05-26T06:14:57.911Z,100589.67
2019-05-26T06:18:19.998Z,100583.28
2019-05-26T06:21:45.758Z,100574.66
2019-05-26T06:25:07.891Z,100585.78
2019-05-26T06:28:29.989Z,100577.54
2019-05-26T06:31:55.377Z,100568.56
2019-05-26T06:35:17.945Z,100571.04
2019-05-26T06:38:43.444Z,100566.95
2019-05-26T06:42:06.279Z,100568.17
2019-05-26T06:45:28.847Z,100575.16
2019-05-26T06:48:51.616Z,100558.72
2019-05-26T06:52:16.857Z,100561.09
2019-05-26T06:55:39.216Z,100550.95
2019-05-26T06:59:02.954Z,100565.66
2019-05-26T07:02:27.975Z,100554.53
2019-05-26T11:31:24.896Z,100366.77
2019-05-26T11:34:41.521Z,100381.42
2019-05-26T11:37:59.210Z,100374.54
2019-05-26T11:41:15.775Z,100379.69
2019-05-26T11:44:32.308Z,100369.08
2019-05-26T11:47:49.516Z,100357.72
2019-05-26T11:51:06.518Z,100361.86
2019-05-26T11:54:23.637Z,100351.39
2019-05-26T11:57:43.625Z,100361.61
2019-05-26T12:01:00.266Z,100354.66
2019-05-26T12:04:16.874Z,100350.67
2019-05-26T12:07:33.435Z,100342.27
2019-05-26T12:10:50.285Z,100329.05
2019-05-26T12:14:11.909Z,100340.88
2019-05-26T12:17:28.515Z,100322.16
2019-05-26T12:20:45.025Z,100335.17
2019-05-26T12:24:01.699Z,100325.47
2019-05-26T12:31:41.559Z,100309.81
2019-05-26T12:34:58.122Z,100307.78
2019-05-26T12:38:18.602Z,100309.11
2019-05-26T12:41:37.328Z,100307.03
2019-05-26T12:44:53.463Z,100300.70
2019-05-26T12:48:10.184Z,100310.72
2019-05-26T12:51:27.028Z,100290.30
2019-05-26T12:54:43.687Z,100289.55
2019-05-26T12:58:00.234Z,100285.78
2019-05-26T13:01:16.938Z,100288.37
2019-05-26T13:04:33.594Z,100286.22
2019-05-26T13:07:50.735Z,100282.09
2019-05-26T13:11:07.354Z,100278.25
2019-05-26T13:14:23.992Z,100272.05
2019-05-26T13:17:40.494Z,100282.15
2019-05-26T13:20:57.101Z,100283.39
2019-05-26T13:24:13.707Z,100271.61
2019-05-26T13:27:30.425Z,100263.52
2019-05-26T13:30:48.847Z,100256.74
2019-05-26T13:34:05.423Z,100259.02
2019-05-26T13:37:22.035Z,100249.01
2019-05-26T13:40:38.692Z,100240.55
2019-05-26T13:43:55.186Z,100251.77
2019-05-26T13:47:25.416Z,100246.36
2019-05-26T13:50:30.260Z,100259.95
2019-05-26T13:53:46.823Z,100257.41
2019-05-26T13:57:03.648Z,100249.19
2019-05-26T14:00:22.716Z,100249.16
2019-05-26T14:03:39.278Z,100239.09
2019-05-26T14:06:55.832Z,100230.70
2019-05-26T14:10:12.649Z,100232.50
2019-05-26T14:13:29.179Z,100223.58
2019-05-26T14:16:46.157Z,100227.06
2019-05-26T14:20:03.361Z,100225.69
2019-05-26T14:23:19.978Z,100225.19
2019-05-26T14:26:36.565Z,100226.59
2019-05-26T14:29:53.259Z,100223.63
2019-05-26T14:33:09.958Z,100211.56
2019-05-26T14:36:26.570Z,100214.00
2019-05-26T14:39:43.172Z,100207.30
2019-05-26T14:42:59.976Z,100196.30
2019-05-26T14:46:16.602Z,100193.94
2019-05-26T14:49:33.192Z,100200.30
2019-05-26T14:52:49.789Z,100202.23
2019-05-26T14:56:07.301Z,100198.01
2019-05-26T14:59:24.079Z,100197.44
2019-05-26T15:02:40.582Z,100191.53
2019-05-26T15:06:05.895Z,100191.99
2019-05-26T15:09:25.274Z,100200.86
2019-05-26T15:12:37.247Z,100199.09
2019-05-26T15:16:08.847Z,100190.11
2019-05-26T15:19:14.094Z,100184.90
2019-05-26T15:22:33.086Z,100177.03
2019-05-26T15:25:51.618Z,100181.56
2019-05-26T15:29:13.358Z,100178.45
2019-05-26T15:32:29.812Z,100176.35
2019-05-26T15:35:46.422Z,100177.81
2019-05-26T15:39:03.125Z,100176.81
2019-05-26T15:42:20.000Z,100168.53
2019-05-26T15:45:39.050Z,100168.23
2019-05-26T15:52:31.603Z,100157.51
2019-05-26T15:55:48.833Z,100155.45
2019-05-26T15:59:05.731Z,100150.72
2019-05-26T16:02:22.482Z,100151.77
2019-05-26T16:05:39.022Z,100161.65
2019-05-26T16:08:55.829Z,100144.58
2019-05-26T16:12:12.599Z,100161.53
2019-05-26T16:15:29.540Z,100156.22
2019-05-26T16:18:46.115Z,100148.91
2019-05-26T16:22:02.827Z,100159.23
2019-05-26T16:25:20.680Z,100160.31
2019-05-26T16:28:42.931Z,100157.49
2019-05-26T16:31:59.766Z,100163.91
2019-05-26T16:35:16.898Z,100143.34
2019-05-26T16:38:33.680Z,100152.02
2019-05-26T16:41:51.085Z,100150.88
2019-05-26T16:45:07.885Z,100142.58
2019-05-26T16:48:24.605Z,100143.45
2019-05-26T16:51:41.166Z,100143.22
2019-05-26T16:54:58.211Z,100144.16
2019-05-26T16:58:14.763Z,100145.08
2019-05-26T17:01:31.645Z,100144.36
2019-05-26T17:04:48.291Z,100135.56
2019-05-26T17:08:04.824Z,100148.28
2019-05-26T17:11:21.404Z,100139.38
2019-05-26T17:14:38.968Z,100144.39
2019-05-26T17:17:59.577Z,100144.85
2019-05-26T17:21:22.226Z,100140.81
2019-05-26T17:24:42.591Z,100134.32
2019-05-26T17:28:00.481Z,100135.97
2019-05-26T17:31:17.343Z,100138.59
2019-05-26T17:34:41.530Z,100138.31
2019-05-26T17:37:59.760Z,100135.92
2019-05-26T17:41:16.482Z,100142.81
2019-05-26T17:44:33.442Z,100133.52
2019-05-26T17:47:50.464Z,100135.58
2019-05-26T17:51:07.132Z,100133.14
2019-05-26T17:54:23.828Z,100131.18
2019-05-26T17:57:40.480Z,100139.33
2019-05-26T18:00:57.235Z,100134.49
2019-05-26T18:04:14.108Z,100128.48
2019-05-26T18:07:31.121Z,100132.14
2019-05-26T18:10:48.043Z,100127.73
2019-05-26T18:14:04.791Z,100133.02
2019-05-26T18:17:21.463Z,100129.02
2019-05-26T18:20:38.137Z,100136.77
2019-05-26T18:23:55.049Z,100142.48
2019-05-26T18:27:12.013Z,100130.35
2019-05-26T18:30:28.718Z,100134.85
2019-05-26T18:33:46.201Z,100136.11
2019-05-26T18:37:02.684Z,100140.18
2019-05-26T18:40:19.877Z,100132.48
2019-05-26T18:43:36.460Z,100141.42
2019-05-26T18:46:53.788Z,100141.84
2019-05-26T18:50:11.280Z,100139.83
2019-05-26T18:53:29.816Z,100141.05
2019-05-26T18:56:46.924Z,100135.80
2019-05-26T19:00:03.983Z,100144.70
2019-05-26T19:03:25.830Z,100139.05
2019-05-26T19:06:42.971Z,100135.81
2019-05-26T19:09:59.848Z,100145.52
2019-05-26T19:13:17.145Z,100140.66
2019-05-26T19:16:33.783Z,100138.61
2019-05-26T19:19:53.075Z,100142.27
2019-05-26T19:23:10.247Z,100137.34
2019-05-26T19:26:28.378Z,100140.18
2019-05-26T19:29:44.938Z,100141.31
2019-05-26T19:33:01.871Z,100139.67
2019-05-26T19:36:18.845Z,100138.03
2019-05-26T19:39:35.552Z,100136.01
2019-05-26T19:42:52.064Z,100140.42
2019-05-26T19:46:09.039Z,100141.58
2019-05-26T19:49:25.600Z,100138.70
2019-05-26T19:52:42.192Z,100131.78
2019-05-26T19:55:59.251Z,100131.36
2019-05-26T19:59:17.243Z,100116.80
2019-05-26T20:02:35.039Z,100143.41
2019-05-26T20:05:51.777Z,100134.49
2019-05-26T20:09:08.808Z,100128.78
2019-05-26T20:12:26.758Z,100122.67
2019-05-26T20:15:43.667Z,100121.01
2019-05-26T20:19:01.514Z,100120.97
2019-05-26T20:22:18.696Z,100114.08
2019-05-26T20:25:35.324Z,100119.69
2019-05-26T20:28:52.027Z,100112.80
2019-05-26T20:32:08.695Z,100125.33
2019-05-26T20:35:26.485Z,100120.84
2019-05-26T20:38:43.197Z,100111.62
2019-05-26T20:42:00.259Z,100113.23
2019-05-26T20:45:18.446Z,100123.66
2019-05-26T20:48:35.126Z,100120.35
2019-05-26T20:51:51.803Z,100124.41
2019-05-26T20:55:08.578Z,100121.11
2019-05-26T20:58:26.183Z,100115.83
2019-05-26T21:01:43.826Z,100105.31
2019-05-26T21:05:07.617Z,100114.16
2019-05-26T21:08:30.057Z,100110.47
2019-05-26T21:11:53.831Z,100103.21
2019-05-26T21:15:12.037Z,100099.16
2019-05-26T21:18:28.748Z,100100.34
2019-05-26T21:21:45.303Z,100096.70
2019-05-26T21:25:01.920Z,100084.16
2019-05-26T21:28:23.757Z,100088.53
2019-05-26T21:31:40.251Z,100091.68
2019-05-26T21:34:56.907Z,100094.44
2019-05-26T21:38:13.432Z,100086.70
2019-05-26T21:41:29.961Z,100091.87
2019-05-26T21:44:46.508Z,100096.60
2019-05-26T21:48:03.042Z,100088.48
2019-05-26T21:51:20.298Z,100087.98
2019-05-26T21:54:41.317Z,100088.64
2019-05-26T21:57:58.010Z,100085.24
2019-05-26T22:01:14.724Z,100081.87
2019-05-26T22:04:31.292Z,100081.74
2019-05-26T22:07:47.833Z,100087.22
2019-05-26T22:11:04.707Z,100075.03
2019-05-26T22:14:21.226Z,100081.41
2019-05-26T22:17:37.828Z,100068.42
2019-05-26T22:20:54.436Z,100074.80
2019-05-26T22:24:10.985Z,100070.73
2019-05-26T22:27:31.659Z,100068.36
2019-05-26T22:30:48.341Z,100066.01
2019-05-26T22:34:06.041Z,100058.98
2019-05-26T22:37:22.644Z,100051.30
2019-05-26T22:40:39.293Z,100058.01
2019-05-26T22:43:55.793Z,100044.53
2019-05-26T22:47:13.444Z,100042.30
2019-05-26T22:50:30.546Z,100053.20
2019-05-26T22:53:47.072Z,100049.11
2019-05-26T22:57:03.582Z,100044.89
2019-05-26T23:00:21.827Z,100044.72
2019-05-26T23:03:38.348Z,100041.07
2019-05-26T23:06:54.902Z,100037.33
2019-05-26T23:10:12.200Z,100040.14
2019-05-26T23:13:29.254Z,100036.52
2019-05-26T23:16:45.881Z,100041.45
2019-05-26T23:20:02.611Z,100036.81
2019-05-26T23:23:19.108Z,100040.16
2019-05-26T23:26:35.645Z,100041.19
2019-05-26T23:29:52.210Z,100026.83
2019-05-26T23:33:08.705Z,100037.58
2019-05-26T23:36:29.625Z,100032.03
2019-05-26T23:39:46.117Z,100026.13
2019-05-26T23:43:02.716Z,100030.36
2019-05-26T23:46:19.182Z,100031.48
2019-05-26T23:49:35.749Z,100025.26
2019-05-26T23:52:52.280Z,100030.28
2019-05-26T23:56:08.809Z,100017.42
2019-05-26T23:59:27.529Z,100019.64
